G. O. Sars — LMEL — position and weather

sailwx.info

Track history (hours):
 
Tides and Currents Weather Stations Pressure Air Temp Water Temp Dewpoint Dewpoint Depression Visibility Wind Speed Wind Dir Waves Ship Positions

Oceanographic research ship G. O. Sars (Norway)

Detailed information on ship capabilities available from University of Delaware's Ocean Information Center and ARCUS's ALIAS (Arctic Logistics Information and Support) project.

Last reported at 2017-Aug-16 02:19 UTC. Time now 2017-Aug-20 03:57 UTC.
Position N 71°06' E 022°03'.

Type: Other ship. MMSI: 257105000.

Date/timePositionNaut miles runAvg speedWind from/ knotsBaromVisibWave heightAir tempDewpointWater temp
2017-Aug-16 02:19N 71°06' E 022°03'310.0
2017-Aug-16 02:00N 71°04' E 021°57'5 9.9
2017-Aug-16 01:30N 70°60' E 021°48'2210.1
2017-Aug-15 23:18N 70°41' E 021°11'310.4
2017-Aug-15 23:00N 70°38' E 021°06'510.3
2017-Aug-15 22:30N 70°34' E 020°57'5 9.9
2017-Aug-15 22:00N 70°30' E 020°50'510.1
2017-Aug-15 21:30N 70°25' E 020°42'510.2
2017-Aug-15 21:00N 70°21' E 020°35'510.5
2017-Aug-15 20:30N 70°16' E 020°27'510.6
2017-Aug-15 20:00N 70°12' E 020°20'510.9
2017-Aug-15 19:30N 70°07' E 020°14'510.6
2017-Aug-15 19:00N 70°02' E 020°07'510.9
2017-Aug-15 18:30N 69°57' E 019°59'510.9
2017-Aug-15 18:00N 69°53' E 019°50'610.8
2017-Aug-15 17:30N 69°49' E 019°37'2 4.5
2017-Aug-15 16:59N 69°49' E 019°31'0 0.0
2017-Aug-15 16:30N 69°49' E 019°31'3 5.8
2017-Aug-15 16:00N 69°48' E 019°23'611.9
2017-Aug-15 15:30N 69°46' E 019°06'510.5
2017-Aug-15 15:00N 69°41' E 019°02'2 3.7
2017-Aug-15 14:30N 69°39' E 018°58'0 0.0
2017-Aug-15 13:59N 69°39' E 018°58'0 0.0
2017-Aug-15 13:29N 69°39' E 018°58'0 0.0
2017-Aug-15 12:59N 69°39' E 018°58'0 0.0
2017-Aug-15 12:29N 69°39' E 018°58'0 0.0
2017-Aug-15 11:59N 69°39' E 018°58'0 0.0
2017-Aug-15 11:29N 69°39' E 018°58'0 0.0
2017-Aug-15 10:59N 69°39' E 018°58'0 0.0
2017-Aug-15 10:29N 69°39' E 018°58'0 0.0
2017-Aug-15 09:59N 69°39' E 018°58'0 0.0
2017-Aug-15 09:29N 69°39' E 018°58'0 0.0
2017-Aug-15 08:59N 69°39' E 018°58'0 0.0
2017-Aug-15 08:29N 69°39' E 018°58'0 0.0
2017-Aug-15 07:59N 69°39' E 018°58'0 0.0
2017-Aug-15 07:23N 69°39' E 018°58'0 0.0
2017-Aug-15 06:59N 69°39' E 018°58'0 0.3
2017-Aug-15 06:29N 69°39' E 018°59'1 2.8
2017-Aug-15 06:00N 69°41' E 018°60'0 0.0
2017-Aug-15 05:30N 69°41' E 018°60'0 0.0
2017-Aug-15 05:00N 69°41' E 018°60'0 0.0
2017-Aug-15 04:30N 69°41' E 018°60'0 0.0
2017-Aug-15 04:00N 69°41' E 018°60'0 0.0
2017-Aug-15 03:30N 69°41' E 018°60'0 0.0
2017-Aug-15 03:00N 69°41' E 018°60'0 0.0
2017-Aug-15 02:30N 69°41' E 018°60'0 0.0
2017-Aug-15 02:00N 69°41' E 018°60'0 0.0
2017-Aug-15 01:30N 69°41' E 018°60'0 0.0
2017-Aug-15 01:00N 69°41' E 018°60'0 0.0
2017-Aug-15 00:30N 69°41' E 018°60'0 0.0
2017-Aug-15 00:00N 69°41' E 018°60'0 0.0
2017-Aug-14 23:30N 69°41' E 018°60'0 0.0
2017-Aug-14 23:00N 69°41' E 018°60'0 0.0
2017-Aug-14 22:30N 69°41' E 018°60'0 0.0
2017-Aug-14 22:00N 69°41' E 018°60'0 0.0
2017-Aug-14 21:30N 69°41' E 018°60'0 0.0
2017-Aug-14 21:00N 69°41' E 018°60'0 0.0
2017-Aug-14 20:30N 69°41' E 018°60'0 0.0
2017-Aug-14 20:00N 69°41' E 018°60'0 0.0
2017-Aug-14 19:30N 69°41' E 018°60'0 0.0
2017-Aug-14 19:00N 69°41' E 018°60'0 0.0
2017-Aug-14 18:29N 69°41' E 018°60'0 0.0
2017-Aug-14 17:59N 69°41' E 018°60'0 0.0
2017-Aug-14 17:29N 69°41' E 018°60'0 0.2
2017-Aug-14 16:59N 69°41' E 018°60'0 0.0
2017-Aug-14 16:29N 69°41' E 018°60'0 0.0
2017-Aug-14 15:59N 69°41' E 018°60'0 0.0
2017-Aug-14 15:29N 69°41' E 018°60'0 0.0
2017-Aug-14 13:05N 69°41' E 018°60'0 0.0
2017-Aug-14 12:59N 69°41' E 018°60'0 0.0
2017-Aug-14 12:29N 69°41' E 018°60'0 0.0
2017-Aug-14 11:59N 69°41' E 018°60'0 0.0
2017-Aug-14 11:29N 69°41' E 018°60'0 0.0
2017-Aug-14 10:59N 69°41' E 018°60'0 0.0
2017-Aug-14 10:29N 69°41' E 018°60'0 0.0
2017-Aug-14 09:59N 69°41' E 018°60'0 0.0
2017-Aug-14 09:29N 69°41' E 018°60'0 0.0
2017-Aug-14 08:59N 69°41' E 018°60'0 0.0
2017-Aug-14 08:29N 69°41' E 018°60'0 0.0
2017-Aug-14 07:59N 69°41' E 018°60'0 0.0
2017-Aug-14 07:29N 69°41' E 018°60'0 0.0
2017-Aug-14 06:59N 69°41' E 018°60'0 0.0
2017-Aug-14 06:29N 69°41' E 018°60'0 0.0
2017-Aug-14 05:59N 69°41' E 018°60'0 0.0
2017-Aug-14 05:29N 69°41' E 018°60'0 0.0
2017-Aug-14 04:59N 69°41' E 018°60'0 0.0
2017-Aug-14 04:29N 69°41' E 018°60'0 0.0
2017-Aug-14 03:59N 69°41' E 018°60'0 0.0
2017-Aug-14 03:29N 69°41' E 018°60'0 0.0
2017-Aug-14 02:59N 69°41' E 018°60'0 0.0
2017-Aug-14 02:29N 69°41' E 018°60'0 0.0
2017-Aug-14 01:59N 69°41' E 018°60'0 0.0
2017-Aug-14 01:29N 69°41' E 018°60'0 0.0
2017-Aug-14 00:59N 69°41' E 018°60'0 0.0
2017-Aug-14 00:29N 69°41' E 018°60'0 0.0
2017-Aug-13 23:59N 69°41' E 018°60'0 0.0
2017-Aug-13 23:29N 69°41' E 018°60'0 0.0
2017-Aug-13 22:59N 69°41' E 018°60'0 0.0
2017-Aug-13 22:29N 69°41' E 018°60'0 0.0
2017-Aug-13 21:59N 69°41' E 018°60'0 0.0
2017-Aug-13 21:29N 69°41' E 018°60'0 0.0
2017-Aug-13 20:59N 69°41' E 018°60'0 0.0
2017-Aug-13 20:29N 69°41' E 018°60'0 0.0
2017-Aug-13 19:53N 69°41' E 018°60'0 0.0
2017-Aug-13 19:29N 69°41' E 018°60'0 0.0
2017-Aug-13 18:59N 69°41' E 018°60'0 0.0
2017-Aug-13 18:29N 69°41' E 018°60'0 0.0
2017-Aug-13 17:59N 69°41' E 018°60'0 0.0
2017-Aug-13 17:29N 69°41' E 018°60'0 0.0
2017-Aug-13 16:59N 69°41' E 018°60'0 0.0
2017-Aug-13 16:29N 69°41' E 018°60'0 0.0
2017-Aug-13 15:59N 69°41' E 018°60'0 0.0
2017-Aug-13 15:29N 69°41' E 018°60'0 0.0
2017-Aug-13 14:59N 69°41' E 018°60'0 0.0
2017-Aug-13 14:29N 69°41' E 018°60'0 0.0
2017-Aug-13 13:59N 69°41' E 018°60'0 0.0
2017-Aug-13 13:29N 69°41' E 018°60'0 0.3
2017-Aug-13 12:59N 69°41' E 018°60'0 0.0
2017-Aug-13 12:29N 69°41' E 018°60'0 0.0
2017-Aug-13 11:59N 69°41' E 018°60'0 0.0
2017-Aug-13 11:29N 69°41' E 018°60'0 0.0
2017-Aug-13 10:59N 69°41' E 018°60'0 0.0
2017-Aug-13 10:29N 69°41' E 018°60'0 0.0
2017-Aug-13 09:59N 69°41' E 018°60'0 0.0
2017-Aug-13 09:29N 69°41' E 018°60'0 0.0
2017-Aug-13 08:59N 69°41' E 018°60'0 0.0
2017-Aug-13 08:29N 69°41' E 018°60'0 0.0
2017-Aug-13 07:59N 69°41' E 018°60'0 0.0
2017-Aug-13 07:28N 69°41' E 018°60'0 0.0
2017-Aug-13 06:58N 69°41' E 018°60'0 0.0
2017-Aug-13 06:28N 69°41' E 018°60'0 0.0
2017-Aug-13 05:58N 69°41' E 018°60'0 0.0
2017-Aug-13 05:28N 69°41' E 018°60'0 0.0
2017-Aug-13 04:58N 69°41' E 018°60'0 0.0
2017-Aug-13 04:28N 69°41' E 018°60'0 0.0
2017-Aug-13 03:58N 69°41' E 018°60'0 0.0
2017-Aug-13 03:28N 69°41' E 018°60'0 0.0
2017-Aug-13 02:58N 69°41' E 018°60'0 0.0
2017-Aug-13 02:28N 69°41' E 018°60'0 0.0
2017-Aug-13 01:58N 69°41' E 018°60'0 0.0
2017-Aug-13 01:28N 69°41' E 018°60'0 0.0
2017-Aug-13 00:58N 69°41' E 018°60'0 0.0
2017-Aug-13 00:28N 69°41' E 018°60'0 0.0
2017-Aug-12 23:58N 69°41' E 018°60'0 0.0
2017-Aug-12 23:28N 69°41' E 018°60'0 0.0
2017-Aug-12 22:58N 69°41' E 018°60'0 0.0
2017-Aug-12 22:28N 69°41' E 018°60'0 0.0
2017-Aug-12 21:58N 69°41' E 018°60'0 0.0
2017-Aug-12 21:28N 69°41' E 018°60'0 0.0
2017-Aug-12 20:58N 69°41' E 018°60'0 0.0
2017-Aug-12 20:28N 69°41' E 018°60'0 0.0
2017-Aug-12 19:58N 69°41' E 018°60'0 0.0
2017-Aug-12 19:25N 69°41' E 018°60'0 0.0
2017-Aug-12 18:58N 69°41' E 018°60'0 0.0
2017-Aug-12 18:28N 69°41' E 018°60'0 0.0
2017-Aug-12 17:58N 69°41' E 018°60'0 0.0
2017-Aug-12 17:28N 69°41' E 018°60'0 0.0
2017-Aug-12 16:58N 69°41' E 018°60'0 0.0
2017-Aug-12 16:28N 69°41' E 018°60'0 0.0
2017-Aug-12 15:58N 69°41' E 018°60'0 0.0
2017-Aug-12 15:28N 69°41' E 018°60'0 0.0
2017-Aug-12 14:58N 69°41' E 018°60'0 0.0
2017-Aug-12 14:28N 69°41' E 018°60'0 0.0
2017-Aug-12 13:58N 69°41' E 018°60'0 0.0
2017-Aug-12 13:28N 69°41' E 018°60'0 0.0
2017-Aug-12 12:58N 69°41' E 018°60'0 0.0
2017-Aug-12 12:28N 69°41' E 018°60'0 0.0
2017-Aug-12 11:58N 69°41' E 018°60'0 0.0
2017-Aug-12 11:28N 69°41' E 018°60'0 0.0
2017-Aug-12 10:58N 69°41' E 018°60'0 0.0
2017-Aug-12 10:28N 69°41' E 018°60'0 0.0
2017-Aug-12 09:58N 69°41' E 018°60'0 0.0
2017-Aug-12 09:28N 69°41' E 018°60'1 3.0
2017-Aug-12 08:59N 69°39' E 018°59'510.1
2017-Aug-12 08:30N 69°35' E 018°51'5 9.8
2017-Aug-12 07:59N 69°33' E 018°38'510.4
2017-Aug-12 07:30N 69°31' E 018°24'510.0
2017-Aug-12 07:00N 69°31' E 018°10'5 9.6
2017-Aug-12 06:30N 69°33' E 017°59'5 9.4
2017-Aug-12 06:00N 69°37' E 017°51'5 8.9
2017-Aug-12 05:30N 69°40' E 017°40'510.3
2017-Aug-12 05:00N 69°38' E 017°26'510.5
2017-Aug-12 04:30N 69°36' E 017°12'510.6
2017-Aug-12 03:59N 69°34' E 016°58'510.9
2017-Aug-12 03:30N 69°32' E 016°44'510.8
2017-Aug-12 03:00N 69°30' E 016°30'611.2
2017-Aug-12 02:30N 69°27' E 016°16'611.7
2017-Aug-12 02:00N 69°24' E 016°01'612.1
2017-Aug-12 01:30N 69°21' E 015°47'611.8
2017-Aug-12 01:00N 69°17' E 015°34'611.9
2017-Aug-12 00:30N 69°13' E 015°21'611.8
2017-Aug-11 23:59N 69°10' E 015°08'611.7
2017-Aug-11 23:30N 69°06' E 014°56'612.0
2017-Aug-11 23:00N 69°02' E 014°42'612.1
2017-Aug-11 22:29N 68°58' E 014°29'510.3
2017-Aug-11 22:00N 68°55' E 014°17'0 0.4
2017-Aug-11 21:30N 68°55' E 014°17'0 0.0
2017-Aug-11 21:00N 68°55' E 014°17'1 2.2
2017-Aug-11 20:30N 68°55' E 014°14'511.0
2017-Aug-11 20:00N 68°52' E 014°01'611.3
2017-Aug-11 19:29N 68°49' E 013°47'611.4
2017-Aug-11 19:00N 68°47' E 013°34'611.4
2017-Aug-11 18:30N 68°44' E 013°20'611.2
2017-Aug-11 18:00N 68°41' E 013°06'  
2017-Aug-07 23:58N 68°52' E 013°24'510.3
2017-Aug-07 23:30N 68°54' E 013°35'510.5
2017-Aug-07 23:00N 68°57' E 013°48'510.8
2017-Aug-07 22:30N 68°60' E 014°01'510.6
2017-Aug-07 22:00N 69°03' E 014°13'510.2
2017-Aug-07 21:30N 69°05' E 014°26'510.2
2017-Aug-07 21:00N 69°08' E 014°38'510.0
2017-Aug-07 20:30N 69°10' E 014°50'5 9.9
2017-Aug-07 20:00N 69°13' E 015°02'510.0
2017-Aug-07 19:30N 69°15' E 015°14'5 9.9
2017-Aug-07 19:00N 69°18' E 015°27'5 9.8
2017-Aug-07 18:30N 69°20' E 015°39'5 9.7
2017-Aug-07 17:59N 69°23' E 015°51'5 9.8
2017-Aug-07 17:30N 69°25' E 016°03'510.1
2017-Aug-07 17:00N 69°27' E 016°16'510.8
2017-Aug-07 16:30N 69°29' E 016°30'510.6
2017-Aug-07 16:00N 69°32' E 016°43'510.4
2017-Aug-07 15:30N 69°34' E 016°57'510.4
2017-Aug-07 15:00N 69°36' E 017°11'510.2
2017-Aug-07 14:30N 69°38' E 017°24'5 9.9
2017-Aug-07 14:00N 69°39' E 017°38'5 9.1
2017-Aug-07 13:30N 69°38' E 017°50'510.5
2017-Aug-07 12:58N 69°33' E 017°60'510.1
2017-Aug-07 12:29N 69°30' E 018°11'510.1
2017-Aug-07 12:00N 69°31' E 018°25'510.0
2017-Aug-07 11:30N 69°33' E 018°38'5 9.4
2017-Aug-07 11:00N 69°35' E 018°50'4 9.2
2017-Aug-07 10:31N 69°39' E 018°58'0 0.0
2017-Aug-07 09:59N 69°39' E 018°58'0 0.0
2017-Aug-07 09:29N 69°39' E 018°58'0 0.0
2017-Aug-07 08:59N 69°39' E 018°58'0 0.0
2017-Aug-07 08:29N 69°39' E 018°58'0 0.0
2017-Aug-07 07:59N 69°39' E 018°58'0 0.0
2017-Aug-07 07:29N 69°39' E 018°58'0 0.0
2017-Aug-07 06:59N 69°39' E 018°58'0 0.0
2017-Aug-07 06:29N 69°39' E 018°58'0 0.0
2017-Aug-07 05:59N 69°39' E 018°58'0 0.0
2017-Aug-07 05:29N 69°39' E 018°58'0 0.0
2017-Aug-07 04:59N 69°39' E 018°58'0 0.0
2017-Aug-07 04:29N 69°39' E 018°58'0 0.0
2017-Aug-07 03:59N 69°39' E 018°58'0 0.0
2017-Aug-07 03:29N 69°39' E 018°58'0 0.0
2017-Aug-07 02:59N 69°39' E 018°58'0 0.0
2017-Aug-07 02:29N 69°39' E 018°58'0 0.0
2017-Aug-07 01:59N 69°39' E 018°58'0 0.0
2017-Aug-07 01:29N 69°39' E 018°58'0 0.0
2017-Aug-07 00:59N 69°39' E 018°58'0 0.0
2017-Aug-07 00:29N 69°39' E 018°58'0 0.0
2017-Aug-06 23:59N 69°39' E 018°58'0 0.0
2017-Aug-06 23:29N 69°39' E 018°58'0 0.0
2017-Aug-06 22:59N 69°39' E 018°58'0 0.0
2017-Aug-06 22:29N 69°39' E 018°58'0 0.0
2017-Aug-06 21:59N 69°39' E 018°58'0 0.0
2017-Aug-06 21:29N 69°39' E 018°58'0 0.0
2017-Aug-06 20:59N 69°39' E 018°58'0 0.0
2017-Aug-06 20:29N 69°39' E 018°58'0 0.0
2017-Aug-06 19:59N 69°39' E 018°58'0 0.0
2017-Aug-06 19:29N 69°39' E 018°58'0 0.0
2017-Aug-06 18:59N 69°39' E 018°58'0 0.0
2017-Aug-06 18:29N 69°39' E 018°58'0 0.0
2017-Aug-06 17:59N 69°39' E 018°58'0 0.0
2017-Aug-06 17:29N 69°39' E 018°58'0 0.0
2017-Aug-06 16:59N 69°39' E 018°58'0 0.0
2017-Aug-06 16:29N 69°39' E 018°58'0 0.0
2017-Aug-06 15:59N 69°39' E 018°58'0 0.0
2017-Aug-06 15:29N 69°39' E 018°58'0 0.0
2017-Aug-06 14:59N 69°39' E 018°58'0 0.0
2017-Aug-06 14:29N 69°39' E 018°58'0 0.0
2017-Aug-06 13:59N 69°39' E 018°58'0 0.0
2017-Aug-06 13:29N 69°39' E 018°58'0 0.0
2017-Aug-06 12:59N 69°39' E 018°58'0 0.0
2017-Aug-06 12:29N 69°39' E 018°58'0 0.0
2017-Aug-06 11:59N 69°39' E 018°58'0 0.0
2017-Aug-06 11:29N 69°39' E 018°58'0 0.0
2017-Aug-06 10:59N 69°39' E 018°58'0 0.0
2017-Aug-06 10:29N 69°39' E 018°58'0 0.0
2017-Aug-06 09:59N 69°39' E 018°58'0 0.0
2017-Aug-06 09:29N 69°39' E 018°58'0 0.0
2017-Aug-06 08:59N 69°39' E 018°58'0 0.0
2017-Aug-06 08:29N 69°39' E 018°58'0 0.0
2017-Aug-06 07:59N 69°39' E 018°58'0 0.4
2017-Aug-06 07:30N 69°39' E 018°58'4 8.6
2017-Aug-06 07:00N 69°43' E 019°03'5 9.7
2017-Aug-06 06:29N 69°47' E 019°12'510.6
2017-Aug-06 06:00N 69°50' E 019°23'510.5
2017-Aug-06 05:29N 69°55' E 019°30'510.4
2017-Aug-06 05:01N 69°58' E 019°41'510.6
2017-Aug-06 04:30N 70°04' E 019°39'510.7
2017-Aug-06 04:00N 70°09' E 019°35'510.6
2017-Aug-06 03:30N 70°13' E 019°28'510.7
2017-Aug-06 03:00N 70°19' E 019°24'510.3
2017-Aug-06 02:30N 70°23' E 019°16'  
Track history (hours):
 
Tides and Currents Weather Stations Pressure Air Temp Water Temp Dewpoint Dewpoint Depression Visibility Wind Speed Wind Dir Waves Ship Positions

Oceanographic research ship G. O. Sars (Norway)

Detailed information on ship capabilities available from University of Delaware's Ocean Information Center and ARCUS's ALIAS (Arctic Logistics Information and Support) project.

Last reported at 2017-Aug-16 02:19 UTC. Time now 2017-Aug-20 03:57 UTC.
Position N 71°06' E 022°03'.

Type: Other ship. MMSI: 257105000.

Date/timePositionNaut miles runAvg speedWind from/ knotsBaromVisibWave heightAir tempDewpointWater temp
2017-Aug-16 02:19N 71°06' E 022°03'310.0
2017-Aug-16 02:00N 71°04' E 021°57'5 9.9
2017-Aug-16 01:30N 70°60' E 021°48'2210.1
2017-Aug-15 23:18N 70°41' E 021°11'310.4
2017-Aug-15 23:00N 70°38' E 021°06'510.3
2017-Aug-15 22:30N 70°34' E 020°57'5 9.9
2017-Aug-15 22:00N 70°30' E 020°50'510.1
2017-Aug-15 21:30N 70°25' E 020°42'510.2
2017-Aug-15 21:00N 70°21' E 020°35'510.5
2017-Aug-15 20:30N 70°16' E 020°27'510.6
2017-Aug-15 20:00N 70°12' E 020°20'510.9
2017-Aug-15 19:30N 70°07' E 020°14'510.6
2017-Aug-15 19:00N 70°02' E 020°07'510.9
2017-Aug-15 18:30N 69°57' E 019°59'510.9
2017-Aug-15 18:00N 69°53' E 019°50'610.8
2017-Aug-15 17:30N 69°49' E 019°37'2 4.5
2017-Aug-15 16:59N 69°49' E 019°31'0 0.0
2017-Aug-15 16:30N 69°49' E 019°31'3 5.8
2017-Aug-15 16:00N 69°48' E 019°23'611.9
2017-Aug-15 15:30N 69°46' E 019°06'510.5
2017-Aug-15 15:00N 69°41' E 019°02'2 3.7
2017-Aug-15 14:30N 69°39' E 018°58'0 0.0
2017-Aug-15 13:59N 69°39' E 018°58'0 0.0
2017-Aug-15 13:29N 69°39' E 018°58'0 0.0
2017-Aug-15 12:59N 69°39' E 018°58'0 0.0
2017-Aug-15 12:29N 69°39' E 018°58'0 0.0
2017-Aug-15 11:59N 69°39' E 018°58'0 0.0
2017-Aug-15 11:29N 69°39' E 018°58'0 0.0
2017-Aug-15 10:59N 69°39' E 018°58'0 0.0
2017-Aug-15 10:29N 69°39' E 018°58'0 0.0
2017-Aug-15 09:59N 69°39' E 018°58'0 0.0
2017-Aug-15 09:29N 69°39' E 018°58'0 0.0
2017-Aug-15 08:59N 69°39' E 018°58'0 0.0
2017-Aug-15 08:29N 69°39' E 018°58'0 0.0
2017-Aug-15 07:59N 69°39' E 018°58'0 0.0
2017-Aug-15 07:23N 69°39' E 018°58'0 0.0
2017-Aug-15 06:59N 69°39' E 018°58'0 0.3
2017-Aug-15 06:29N 69°39' E 018°59'1 2.8
2017-Aug-15 06:00N 69°41' E 018°60'0 0.0
2017-Aug-15 05:30N 69°41' E 018°60'0 0.0
2017-Aug-15 05:00N 69°41' E 018°60'0 0.0
2017-Aug-15 04:30N 69°41' E 018°60'0 0.0
2017-Aug-15 04:00N 69°41' E 018°60'0 0.0
2017-Aug-15 03:30N 69°41' E 018°60'0 0.0
2017-Aug-15 03:00N 69°41' E 018°60'0 0.0
2017-Aug-15 02:30N 69°41' E 018°60'0 0.0
2017-Aug-15 02:00N 69°41' E 018°60'0 0.0
2017-Aug-15 01:30N 69°41' E 018°60'0 0.0
2017-Aug-15 01:00N 69°41' E 018°60'0 0.0
2017-Aug-15 00:30N 69°41' E 018°60'0 0.0
2017-Aug-15 00:00N 69°41' E 018°60'0 0.0
2017-Aug-14 23:30N 69°41' E 018°60'0 0.0
2017-Aug-14 23:00N 69°41' E 018°60'0 0.0
2017-Aug-14 22:30N 69°41' E 018°60'0 0.0
2017-Aug-14 22:00N 69°41' E 018°60'0 0.0
2017-Aug-14 21:30N 69°41' E 018°60'0 0.0
2017-Aug-14 21:00N 69°41' E 018°60'0 0.0
2017-Aug-14 20:30N 69°41' E 018°60'0 0.0
2017-Aug-14 20:00N 69°41' E 018°60'0 0.0
2017-Aug-14 19:30N 69°41' E 018°60'0 0.0
2017-Aug-14 19:00N 69°41' E 018°60'0 0.0
2017-Aug-14 18:29N 69°41' E 018°60'0 0.0
2017-Aug-14 17:59N 69°41' E 018°60'0 0.0
2017-Aug-14 17:29N 69°41' E 018°60'0 0.2
2017-Aug-14 16:59N 69°41' E 018°60'0 0.0
2017-Aug-14 16:29N 69°41' E 018°60'0 0.0
2017-Aug-14 15:59N 69°41' E 018°60'0 0.0
2017-Aug-14 15:29N 69°41' E 018°60'0 0.0
2017-Aug-14 13:05N 69°41' E 018°60'0 0.0
2017-Aug-14 12:59N 69°41' E 018°60'0 0.0
2017-Aug-14 12:29N 69°41' E 018°60'0 0.0
2017-Aug-14 11:59N 69°41' E 018°60'0 0.0
2017-Aug-14 11:29N 69°41' E 018°60'0 0.0
2017-Aug-14 10:59N 69°41' E 018°60'0 0.0
2017-Aug-14 10:29N 69°41' E 018°60'0 0.0
2017-Aug-14 09:59N 69°41' E 018°60'0 0.0
2017-Aug-14 09:29N 69°41' E 018°60'0 0.0
2017-Aug-14 08:59N 69°41' E 018°60'0 0.0
2017-Aug-14 08:29N 69°41' E 018°60'0 0.0
2017-Aug-14 07:59N 69°41' E 018°60'0 0.0
2017-Aug-14 07:29N 69°41' E 018°60'0 0.0
2017-Aug-14 06:59N 69°41' E 018°60'0 0.0
2017-Aug-14 06:29N 69°41' E 018°60'0 0.0
2017-Aug-14 05:59N 69°41' E 018°60'0 0.0
2017-Aug-14 05:29N 69°41' E 018°60'0 0.0
2017-Aug-14 04:59N 69°41' E 018°60'0 0.0
2017-Aug-14 04:29N 69°41' E 018°60'0 0.0
2017-Aug-14 03:59N 69°41' E 018°60'0 0.0
2017-Aug-14 03:29N 69°41' E 018°60'0 0.0
2017-Aug-14 02:59N 69°41' E 018°60'0 0.0
2017-Aug-14 02:29N 69°41' E 018°60'0 0.0
2017-Aug-14 01:59N 69°41' E 018°60'0 0.0
2017-Aug-14 01:29N 69°41' E 018°60'0 0.0
2017-Aug-14 00:59N 69°41' E 018°60'0 0.0
2017-Aug-14 00:29N 69°41' E 018°60'0 0.0
2017-Aug-13 23:59N 69°41' E 018°60'0 0.0
2017-Aug-13 23:29N 69°41' E 018°60'0 0.0
2017-Aug-13 22:59N 69°41' E 018°60'0 0.0
2017-Aug-13 22:29N 69°41' E 018°60'0 0.0
2017-Aug-13 21:59N 69°41' E 018°60'0 0.0
2017-Aug-13 21:29N 69°41' E 018°60'0 0.0
2017-Aug-13 20:59N 69°41' E 018°60'0 0.0
2017-Aug-13 20:29N 69°41' E 018°60'0 0.0
2017-Aug-13 19:53N 69°41' E 018°60'0 0.0
2017-Aug-13 19:29N 69°41' E 018°60'0 0.0
2017-Aug-13 18:59N 69°41' E 018°60'0 0.0
2017-Aug-13 18:29N 69°41' E 018°60'0 0.0
2017-Aug-13 17:59N 69°41' E 018°60'0 0.0
2017-Aug-13 17:29N 69°41' E 018°60'0 0.0
2017-Aug-13 16:59N 69°41' E 018°60'0 0.0
2017-Aug-13 16:29N 69°41' E 018°60'0 0.0
2017-Aug-13 15:59N 69°41' E 018°60'0 0.0
2017-Aug-13 15:29N 69°41' E 018°60'0 0.0
2017-Aug-13 14:59N 69°41' E 018°60'0 0.0
2017-Aug-13 14:29N 69°41' E 018°60'0 0.0
2017-Aug-13 13:59N 69°41' E 018°60'0 0.0
2017-Aug-13 13:29N 69°41' E 018°60'0 0.3
2017-Aug-13 12:59N 69°41' E 018°60'0 0.0
2017-Aug-13 12:29N 69°41' E 018°60'0 0.0
2017-Aug-13 11:59N 69°41' E 018°60'0 0.0
2017-Aug-13 11:29N 69°41' E 018°60'0 0.0
2017-Aug-13 10:59N 69°41' E 018°60'0 0.0
2017-Aug-13 10:29N 69°41' E 018°60'0 0.0
2017-Aug-13 09:59N 69°41' E 018°60'0 0.0
2017-Aug-13 09:29N 69°41' E 018°60'0 0.0
2017-Aug-13 08:59N 69°41' E 018°60'0 0.0
2017-Aug-13 08:29N 69°41' E 018°60'0 0.0
2017-Aug-13 07:59N 69°41' E 018°60'0 0.0
2017-Aug-13 07:28N 69°41' E 018°60'0 0.0
2017-Aug-13 06:58N 69°41' E 018°60'0 0.0
2017-Aug-13 06:28N 69°41' E 018°60'0 0.0
2017-Aug-13 05:58N 69°41' E 018°60'0 0.0
2017-Aug-13 05:28N 69°41' E 018°60'0 0.0
2017-Aug-13 04:58N 69°41' E 018°60'0 0.0
2017-Aug-13 04:28N 69°41' E 018°60'0 0.0
2017-Aug-13 03:58N 69°41' E 018°60'0 0.0
2017-Aug-13 03:28N 69°41' E 018°60'0 0.0
2017-Aug-13 02:58N 69°41' E 018°60'0 0.0
2017-Aug-13 02:28N 69°41' E 018°60'0 0.0
2017-Aug-13 01:58N 69°41' E 018°60'0 0.0
2017-Aug-13 01:28N 69°41' E 018°60'0 0.0
2017-Aug-13 00:58N 69°41' E 018°60'0 0.0
2017-Aug-13 00:28N 69°41' E 018°60'0 0.0
2017-Aug-12 23:58N 69°41' E 018°60'0 0.0
2017-Aug-12 23:28N 69°41' E 018°60'0 0.0
2017-Aug-12 22:58N 69°41' E 018°60'0 0.0
2017-Aug-12 22:28N 69°41' E 018°60'0 0.0
2017-Aug-12 21:58N 69°41' E 018°60'0 0.0
2017-Aug-12 21:28N 69°41' E 018°60'0 0.0
2017-Aug-12 20:58N 69°41' E 018°60'0 0.0
2017-Aug-12 20:28N 69°41' E 018°60'0 0.0
2017-Aug-12 19:58N 69°41' E 018°60'0 0.0
2017-Aug-12 19:25N 69°41' E 018°60'0 0.0
2017-Aug-12 18:58N 69°41' E 018°60'0 0.0
2017-Aug-12 18:28N 69°41' E 018°60'0 0.0
2017-Aug-12 17:58N 69°41' E 018°60'0 0.0
2017-Aug-12 17:28N 69°41' E 018°60'0 0.0
2017-Aug-12 16:58N 69°41' E 018°60'0 0.0
2017-Aug-12 16:28N 69°41' E 018°60'0 0.0
2017-Aug-12 15:58N 69°41' E 018°60'0 0.0
2017-Aug-12 15:28N 69°41' E 018°60'0 0.0
2017-Aug-12 14:58N 69°41' E 018°60'0 0.0
2017-Aug-12 14:28N 69°41' E 018°60'0 0.0
2017-Aug-12 13:58N 69°41' E 018°60'0 0.0
2017-Aug-12 13:28N 69°41' E 018°60'0 0.0
2017-Aug-12 12:58N 69°41' E 018°60'0 0.0
2017-Aug-12 12:28N 69°41' E 018°60'0 0.0
2017-Aug-12 11:58N 69°41' E 018°60'0 0.0
2017-Aug-12 11:28N 69°41' E 018°60'0 0.0
2017-Aug-12 10:58N 69°41' E 018°60'0 0.0
2017-Aug-12 10:28N 69°41' E 018°60'0 0.0
2017-Aug-12 09:58N 69°41' E 018°60'0 0.0
2017-Aug-12 09:28N 69°41' E 018°60'1 3.0
2017-Aug-12 08:59N 69°39' E 018°59'510.1
2017-Aug-12 08:30N 69°35' E 018°51'5 9.8
2017-Aug-12 07:59N 69°33' E 018°38'510.4
2017-Aug-12 07:30N 69°31' E 018°24'510.0
2017-Aug-12 07:00N 69°31' E 018°10'5 9.6
2017-Aug-12 06:30N 69°33' E 017°59'5 9.4
2017-Aug-12 06:00N 69°37' E 017°51'5 8.9
2017-Aug-12 05:30N 69°40' E 017°40'510.3
2017-Aug-12 05:00N 69°38' E 017°26'510.5
2017-Aug-12 04:30N 69°36' E 017°12'510.6
2017-Aug-12 03:59N 69°34' E 016°58'510.9
2017-Aug-12 03:30N 69°32' E 016°44'510.8
2017-Aug-12 03:00N 69°30' E 016°30'611.2
2017-Aug-12 02:30N 69°27' E 016°16'611.7
2017-Aug-12 02:00N 69°24' E 016°01'612.1
2017-Aug-12 01:30N 69°21' E 015°47'611.8
2017-Aug-12 01:00N 69°17' E 015°34'611.9
2017-Aug-12 00:30N 69°13' E 015°21'611.8
2017-Aug-11 23:59N 69°10' E 015°08'611.7
2017-Aug-11 23:30N 69°06' E 014°56'612.0
2017-Aug-11 23:00N 69°02' E 014°42'612.1
2017-Aug-11 22:29N 68°58' E 014°29'510.3
2017-Aug-11 22:00N 68°55' E 014°17'0 0.4
2017-Aug-11 21:30N 68°55' E 014°17'0 0.0
2017-Aug-11 21:00N 68°55' E 014°17'1 2.2
2017-Aug-11 20:30N 68°55' E 014°14'511.0
2017-Aug-11 20:00N 68°52' E 014°01'611.3
2017-Aug-11 19:29N 68°49' E 013°47'611.4
2017-Aug-11 19:00N 68°47' E 013°34'611.4
2017-Aug-11 18:30N 68°44' E 013°20'611.2
2017-Aug-11 18:00N 68°41' E 013°06'  
2017-Aug-07 23:58N 68°52' E 013°24'510.3
2017-Aug-07 23:30N 68°54' E 013°35'510.5
2017-Aug-07 23:00N 68°57' E 013°48'510.8
2017-Aug-07 22:30N 68°60' E 014°01'510.6
2017-Aug-07 22:00N 69°03' E 014°13'510.2
2017-Aug-07 21:30N 69°05' E 014°26'510.2
2017-Aug-07 21:00N 69°08' E 014°38'510.0
2017-Aug-07 20:30N 69°10' E 014°50'5 9.9
2017-Aug-07 20:00N 69°13' E 015°02'510.0
2017-Aug-07 19:30N 69°15' E 015°14'5 9.9
2017-Aug-07 19:00N 69°18' E 015°27'5 9.8
2017-Aug-07 18:30N 69°20' E 015°39'5 9.7
2017-Aug-07 17:59N 69°23' E 015°51'5 9.8
2017-Aug-07 17:30N 69°25' E 016°03'510.1
2017-Aug-07 17:00N 69°27' E 016°16'510.8
2017-Aug-07 16:30N 69°29' E 016°30'510.6
2017-Aug-07 16:00N 69°32' E 016°43'510.4
2017-Aug-07 15:30N 69°34' E 016°57'510.4
2017-Aug-07 15:00N 69°36' E 017°11'510.2
2017-Aug-07 14:30N 69°38' E 017°24'5 9.9
2017-Aug-07 14:00N 69°39' E 017°38'5 9.1
2017-Aug-07 13:30N 69°38' E 017°50'510.5
2017-Aug-07 12:58N 69°33' E 017°60'510.1
2017-Aug-07 12:29N 69°30' E 018°11'510.1
2017-Aug-07 12:00N 69°31' E 018°25'510.0
2017-Aug-07 11:30N 69°33' E 018°38'5 9.4
2017-Aug-07 11:00N 69°35' E 018°50'4 9.2
2017-Aug-07 10:31N 69°39' E 018°58'0 0.0
2017-Aug-07 09:59N 69°39' E 018°58'0 0.0
2017-Aug-07 09:29N 69°39' E 018°58'0 0.0
2017-Aug-07 08:59N 69°39' E 018°58'0 0.0
2017-Aug-07 08:29N 69°39' E 018°58'0 0.0
2017-Aug-07 07:59N 69°39' E 018°58'0 0.0
2017-Aug-07 07:29N 69°39' E 018°58'0 0.0
2017-Aug-07 06:59N 69°39' E 018°58'0 0.0
2017-Aug-07 06:29N 69°39' E 018°58'0 0.0
2017-Aug-07 05:59N 69°39' E 018°58'0 0.0
2017-Aug-07 05:29N 69°39' E 018°58'0 0.0
2017-Aug-07 04:59N 69°39' E 018°58'0 0.0
2017-Aug-07 04:29N 69°39' E 018°58'0 0.0
2017-Aug-07 03:59N 69°39' E 018°58'0 0.0
2017-Aug-07 03:29N 69°39' E 018°58'0 0.0
2017-Aug-07 02:59N 69°39' E 018°58'0 0.0
2017-Aug-07 02:29N 69°39' E 018°58'0 0.0
2017-Aug-07 01:59N 69°39' E 018°58'0 0.0
2017-Aug-07 01:29N 69°39' E 018°58'0 0.0
2017-Aug-07 00:59N 69°39' E 018°58'0 0.0
2017-Aug-07 00:29N 69°39' E 018°58'0 0.0
2017-Aug-06 23:59N 69°39' E 018°58'0 0.0
2017-Aug-06 23:29N 69°39' E 018°58'0 0.0
2017-Aug-06 22:59N 69°39' E 018°58'0 0.0
2017-Aug-06 22:29N 69°39' E 018°58'0 0.0
2017-Aug-06 21:59N 69°39' E 018°58'0 0.0
2017-Aug-06 21:29N 69°39' E 018°58'0 0.0
2017-Aug-06 20:59N 69°39' E 018°58'0 0.0
2017-Aug-06 20:29N 69°39' E 018°58'0 0.0
2017-Aug-06 19:59N 69°39' E 018°58'0 0.0
2017-Aug-06 19:29N 69°39' E 018°58'0 0.0
2017-Aug-06 18:59N 69°39' E 018°58'0 0.0
2017-Aug-06 18:29N 69°39' E 018°58'0 0.0
2017-Aug-06 17:59N 69°39' E 018°58'0 0.0
2017-Aug-06 17:29N 69°39' E 018°58'0 0.0
2017-Aug-06 16:59N 69°39' E 018°58'0 0.0
2017-Aug-06 16:29N 69°39' E 018°58'0 0.0
2017-Aug-06 15:59N 69°39' E 018°58'0 0.0
2017-Aug-06 15:29N 69°39' E 018°58'0 0.0
2017-Aug-06 14:59N 69°39' E 018°58'0 0.0
2017-Aug-06 14:29N 69°39' E 018°58'0 0.0
2017-Aug-06 13:59N 69°39' E 018°58'0 0.0
2017-Aug-06 13:29N 69°39' E 018°58'0 0.0
2017-Aug-06 12:59N 69°39' E 018°58'0 0.0
2017-Aug-06 12:29N 69°39' E 018°58'0 0.0
2017-Aug-06 11:59N 69°39' E 018°58'0 0.0
2017-Aug-06 11:29N 69°39' E 018°58'0 0.0
2017-Aug-06 10:59N 69°39' E 018°58'0 0.0
2017-Aug-06 10:29N 69°39' E 018°58'0 0.0
2017-Aug-06 09:59N 69°39' E 018°58'0 0.0
2017-Aug-06 09:29N 69°39' E 018°58'0 0.0
2017-Aug-06 08:59N 69°39' E 018°58'0 0.0
2017-Aug-06 08:29N 69°39' E 018°58'0 0.0
2017-Aug-06 07:59N 69°39' E 018°58'0 0.4
2017-Aug-06 07:30N 69°39' E 018°58'4 8.6
2017-Aug-06 07:00N 69°43' E 019°03'5 9.7
2017-Aug-06 06:29N 69°47' E 019°12'510.6
2017-Aug-06 06:00N 69°50' E 019°23'510.5
2017-Aug-06 05:29N 69°55' E 019°30'510.4
2017-Aug-06 05:01N 69°58' E 019°41'510.6
2017-Aug-06 04:30N 70°04' E 019°39'510.7
2017-Aug-06 04:00N 70°09' E 019°35'510.6
2017-Aug-06 03:30N 70°13' E 019°28'510.7
2017-Aug-06 03:00N 70°19' E 019°24'510.3
2017-Aug-06 02:30N 70°23' E 019°16'  

Dump ship's entire track history